In Rescue
 
Open Full Screen Window  High Contrast Mode
Wind Gusting 00 knots
09
November 29, 2022 8:17 AM CST
Weather Information
Wind Direction
  230 °
Wind Speed
  09 kt (10 mph)
Wind Gust
  00 kt (0 mph)
Altimeter
29.69 in
Visibility
10 SM
Temperature
-09° C
16° F
Dewpoint
-13° C
F
Humidity
73%
1hr Rain Fall
00.00 in.
24hr Rain Fall
00.00 in.
Sky Condition
Clear
VFR

METAR K3N8 291417Z AUTO 23009KT 10SM CLR M09/M13 A2969 RMK AO2 T10951127

FAA Disclaimer: The data displayed is for advisory purposes only and is not to be used for flight planning or operations.